createdAt,value
2019-03-04T00:01:01.090Z,64.56
2019-03-04T00:02:04.804Z,64.60
2019-03-04T00:03:08.541Z,64.63
2019-03-04T00:04:12.180Z,64.57
2019-03-04T00:05:15.815Z,64.55
2019-03-04T00:06:19.449Z,64.37
2019-03-04T00:07:23.416Z,64.14
2019-03-04T00:08:27.015Z,63.96
2019-03-04T00:09:30.665Z,64.11
2019-03-04T00:10:34.351Z,64.52
2019-03-04T00:11:37.951Z,64.70
2019-03-04T00:12:41.585Z,64.98
2019-03-04T00:13:45.256Z,65.12
2019-03-04T00:14:48.898Z,65.31
2019-03-04T00:15:52.532Z,65.20
2019-03-04T00:16:56.229Z,64.99
2019-03-04T00:17:59.868Z,64.89
2019-03-04T00:19:03.549Z,65.20
2019-03-04T00:20:08.998Z,65.08
2019-03-04T00:21:12.642Z,65.03
2019-03-04T00:22:16.285Z,65.25
2019-03-04T00:23:19.984Z,65.67
2019-03-04T00:24:23.662Z,65.75
2019-03-04T00:25:27.293Z,65.95
2019-03-04T00:26:30.929Z,66.28
2019-03-04T00:27:34.657Z,66.16
2019-03-04T00:28:38.291Z,65.81
2019-03-04T00:29:41.957Z,65.47
2019-03-04T00:30:45.595Z,65.35
2019-03-04T00:31:49.232Z,65.20
2019-03-04T00:32:53.281Z,65.22
2019-03-04T00:33:56.921Z,65.46
2019-03-04T00:35:00.511Z,65.96
2019-03-04T00:36:04.146Z,66.40
2019-03-04T00:37:07.783Z,67.03
2019-03-04T00:38:11.425Z,67.28
2019-03-04T00:39:14.993Z,67.13
2019-03-04T00:40:18.765Z,66.72
2019-03-04T00:41:22.409Z,66.47
2019-03-04T00:42:26.056Z,66.18
2019-03-04T00:43:29.690Z,65.58
2019-03-04T00:44:33.323Z,65.93
2019-03-04T00:45:37.004Z,66.51
2019-03-04T00:46:40.574Z,66.77
2019-03-04T00:47:44.203Z,66.80
2019-03-04T00:48:47.843Z,66.87
2019-03-04T00:49:51.517Z,66.91
2019-03-04T00:50:55.087Z,67.12
2019-03-04T00:51:58.717Z,66.97
2019-03-04T00:53:02.357Z,66.79
2019-03-04T00:54:06.002Z,66.40
2019-03-04T00:55:10.884Z,66.14
2019-03-04T00:56:14.526Z,65.88
2019-03-04T00:57:18.184Z,66.02
2019-03-04T00:58:21.806Z,66.03
2019-03-04T00:59:25.449Z,66.27
2019-03-04T01:00:29.116Z,66.55
2019-03-04T01:01:32.755Z,67.14
2019-03-04T01:02:36.405Z,67.41
2019-03-04T01:03:40.087Z,67.32
2019-03-04T01:04:43.683Z,67.13
2019-03-04T01:05:47.370Z,66.87
2019-03-04T01:06:51.008Z,66.60
2019-03-04T01:07:54.687Z,66.43
2019-03-04T01:08:58.330Z,66.23
2019-03-04T01:10:01.975Z,66.29
2019-03-04T01:11:06.876Z,66.68
2019-03-04T01:12:10.514Z,66.32
2019-03-04T01:13:14.151Z,66.04
2019-03-04T01:14:17.800Z,66.57
2019-03-04T01:15:22.577Z,66.68
2019-03-04T01:16:26.300Z,66.64
2019-03-04T01:17:29.936Z,66.38
2019-03-04T01:18:33.901Z,66.22
2019-03-04T01:19:37.528Z,66.10
2019-03-04T01:20:41.219Z,65.86
2019-03-04T01:21:44.856Z,66.23
2019-03-04T01:22:48.495Z,66.77
2019-03-04T01:23:52.129Z,67.09
2019-03-04T01:24:55.772Z,67.31
2019-03-04T01:25:59.417Z,67.43
2019-03-04T01:27:03.087Z,67.39
2019-03-04T01:28:06.720Z,67.56
2019-03-04T01:29:10.419Z,67.39
2019-03-04T01:30:22.679Z,67.06
2019-03-04T01:31:26.608Z,67.27
2019-03-04T01:32:30.298Z,66.83
2019-03-04T01:33:33.920Z,66.82
2019-03-04T01:34:37.933Z,66.99
2019-03-04T01:35:41.575Z,67.09
2019-03-04T01:36:45.200Z,67.42
2019-03-04T01:37:49.169Z,67.74
2019-03-04T01:38:52.807Z,67.95
2019-03-04T01:39:56.392Z,67.94
2019-03-04T01:41:00.036Z,67.66
2019-03-04T01:42:03.685Z,67.48
2019-03-04T01:43:07.355Z,67.18
2019-03-04T01:44:11.002Z,66.75
2019-03-04T01:45:16.511Z,66.88
2019-03-04T01:46:20.508Z,67.54
2019-03-04T01:47:24.140Z,68.13
2019-03-04T01:48:27.809Z,68.47
2019-03-04T01:49:31.439Z,69.04
2019-03-04T01:50:35.004Z,69.28
2019-03-04T01:51:38.640Z,69.32
2019-03-04T01:52:42.625Z,69.00
2019-03-04T01:53:46.288Z,68.61
2019-03-04T01:54:49.930Z,68.29
2019-03-04T01:55:53.570Z,68.14
2019-03-04T01:56:57.211Z,67.74
2019-03-04T01:58:00.844Z,67.77
2019-03-04T01:59:04.525Z,68.22
2019-03-04T02:00:16.632Z,68.40
2019-03-04T02:01:20.201Z,68.78
2019-03-04T02:02:23.893Z,68.92
2019-03-04T02:03:27.531Z,68.70
2019-03-04T02:04:31.213Z,68.49
2019-03-04T02:05:34.848Z,68.30
2019-03-04T02:06:38.486Z,68.06
2019-03-04T02:07:42.234Z,67.88
2019-03-04T02:08:45.879Z,67.50
2019-03-04T02:09:49.539Z,67.84
2019-03-04T02:10:53.178Z,68.10
2019-03-04T02:11:56.833Z,68.58
2019-03-04T02:13:00.493Z,69.14
2019-03-04T02:14:04.320Z,69.44
2019-03-04T02:15:11.100Z,69.67
2019-03-04T02:16:14.730Z,69.74
2019-03-04T02:17:18.448Z,69.53
2019-03-04T02:18:22.085Z,69.25
2019-03-04T02:19:25.737Z,69.05
2019-03-04T02:20:29.406Z,68.84
2019-03-04T02:21:33.043Z,68.76
2019-03-04T02:22:36.685Z,68.88
2019-03-04T02:23:40.413Z,69.29
2019-03-04T02:24:44.051Z,69.32
2019-03-04T02:25:50.661Z,69.32
2019-03-04T02:26:54.978Z,69.37
2019-03-04T02:27:58.611Z,69.63
2019-03-04T02:29:02.245Z,69.69
2019-03-04T02:30:17.594Z,69.72
2019-03-04T02:31:21.273Z,69.59
2019-03-04T02:32:24.911Z,69.43
2019-03-04T02:33:29.453Z,69.66
2019-03-04T02:34:33.090Z,69.66
2019-03-04T02:35:36.824Z,70.00
2019-03-04T02:36:40.492Z,70.17
2019-03-04T02:37:44.124Z,70.19
2019-03-04T02:38:47.756Z,70.10
2019-03-04T02:39:51.389Z,70.22
2019-03-04T02:40:57.039Z,70.39
2019-03-04T02:42:00.751Z,70.31
2019-03-04T02:43:04.403Z,70.23
2019-03-04T02:44:08.045Z,70.05
2019-03-04T02:45:14.613Z,69.89
2019-03-04T02:46:18.229Z,69.58
2019-03-04T02:47:22.207Z,69.49
2019-03-04T02:48:25.841Z,69.88
2019-03-04T02:49:29.545Z,70.00
2019-03-04T02:50:33.183Z,69.98
2019-03-04T02:51:36.816Z,70.11
2019-03-04T02:52:40.491Z,70.28
2019-03-04T02:53:44.125Z,70.29
2019-03-04T02:54:47.762Z,70.19
2019-03-04T02:55:51.397Z,70.03
2019-03-04T02:56:55.032Z,69.98
2019-03-04T02:57:58.705Z,70.54
2019-03-04T02:59:02.333Z,70.58
2019-03-04T03:00:08.883Z,70.61
2019-03-04T03:01:12.792Z,70.75
2019-03-04T03:02:16.424Z,71.02
2019-03-04T03:03:20.132Z,70.98
2019-03-04T03:04:23.815Z,71.12
2019-03-04T03:05:27.429Z,71.22
2019-03-04T03:06:31.001Z,71.21
2019-03-04T03:07:34.639Z,71.21
2019-03-04T03:08:38.314Z,71.37
2019-03-04T03:09:41.945Z,71.13
2019-03-04T03:10:45.583Z,70.59
2019-03-04T03:11:49.223Z,70.52
2019-03-04T03:12:53.198Z,70.49
2019-03-04T03:13:56.866Z,70.92
2019-03-04T03:15:00.613Z,71.09
2019-03-04T03:16:04.225Z,71.22
2019-03-04T03:17:07.852Z,71.45
2019-03-04T03:18:11.879Z,71.30
2019-03-04T03:19:15.551Z,71.43
2019-03-04T03:20:19.182Z,71.34
2019-03-04T03:21:22.814Z,71.16
2019-03-04T03:22:26.752Z,70.97
2019-03-04T03:23:30.415Z,70.60
2019-03-04T03:24:34.075Z,70.40
2019-03-04T03:25:37.685Z,70.95
2019-03-04T03:26:41.323Z,71.58
2019-03-04T03:27:44.966Z,72.03
2019-03-04T03:28:48.597Z,72.25
2019-03-04T03:29:52.398Z,72.49
2019-03-04T03:30:55.973Z,72.88
2019-03-04T03:31:59.611Z,72.78
2019-03-04T03:33:03.253Z,73.04
2019-03-04T03:34:07.055Z,73.01
2019-03-04T03:35:11.127Z,72.81
2019-03-04T03:36:15.097Z,72.50
2019-03-04T03:37:18.733Z,72.21
2019-03-04T03:38:22.367Z,71.75
2019-03-04T03:39:26.008Z,72.10
2019-03-04T03:40:29.669Z,72.06
2019-03-04T03:41:33.287Z,72.07
2019-03-04T03:42:37.219Z,72.28
2019-03-04T03:43:40.860Z,72.49
2019-03-04T03:44:44.499Z,72.50
2019-03-04T03:45:48.550Z,72.90
2019-03-04T03:46:52.194Z,73.07
2019-03-04T03:47:56.027Z,73.26
2019-03-04T03:49:00.065Z,72.83
2019-03-04T03:50:05.212Z,72.58
2019-03-04T03:51:08.888Z,72.42
2019-03-04T03:52:12.532Z,71.92
2019-03-04T03:53:16.159Z,72.09
2019-03-04T03:54:19.866Z,72.47
2019-03-04T03:55:23.565Z,72.60
2019-03-04T03:56:27.237Z,72.60
2019-03-04T03:57:30.955Z,72.71
2019-03-04T03:58:34.602Z,72.63
2019-03-04T03:59:38.251Z,72.59
2019-03-04T04:00:41.873Z,72.77
2019-03-04T04:01:45.532Z,72.89
2019-03-04T04:02:49.275Z,72.70
2019-03-04T04:03:53.008Z,72.55
2019-03-04T04:04:56.642Z,72.29
2019-03-04T04:06:00.282Z,72.07
2019-03-04T04:07:03.951Z,72.23
2019-03-04T04:08:07.585Z,72.44
2019-03-04T04:09:11.225Z,72.72
2019-03-04T04:10:16.062Z,73.25
2019-03-04T04:11:19.702Z,73.41
2019-03-04T04:12:23.375Z,73.58
2019-03-04T04:13:27.013Z,73.63
2019-03-04T04:14:30.645Z,73.58
2019-03-04T04:15:34.276Z,73.32
2019-03-04T04:16:38.172Z,73.65
2019-03-04T04:17:41.863Z,75.03
2019-03-04T04:18:45.468Z,77.04
2019-03-04T04:19:49.127Z,76.66
2019-03-04T04:20:52.760Z,76.69
2019-03-04T04:21:56.383Z,77.12
2019-03-04T04:23:00.058Z,74.16
2019-03-04T04:24:04.271Z,73.83
2019-03-04T04:25:09.212Z,73.95
2019-03-04T04:26:22.266Z,73.90
2019-03-04T04:27:25.904Z,74.85
2019-03-04T04:28:30.557Z,76.79
2019-03-04T04:29:35.847Z,74.65
2019-03-04T04:30:39.886Z,73.42
2019-03-04T04:31:44.289Z,72.93
2019-03-04T04:32:47.927Z,73.25
2019-03-04T04:33:51.983Z,74.02
2019-03-04T04:34:55.632Z,74.37
2019-03-04T04:35:59.597Z,74.54
2019-03-04T04:37:03.230Z,74.66
2019-03-04T04:38:06.865Z,74.65
2019-03-04T04:39:12.183Z,74.89
2019-03-04T04:40:15.823Z,74.85
2019-03-04T04:41:19.470Z,74.64
2019-03-04T04:42:23.174Z,75.33
2019-03-04T04:43:26.811Z,75.42
2019-03-04T04:44:30.492Z,75.65
2019-03-04T04:45:34.127Z,75.66
2019-03-04T04:46:46.547Z,75.62
2019-03-04T04:47:50.174Z,76.03
2019-03-04T04:48:53.806Z,76.45
2019-03-04T04:49:58.265Z,76.63
2019-03-04T04:51:01.907Z,76.47
2019-03-04T04:52:05.542Z,76.40
2019-03-04T04:53:09.182Z,76.50
2019-03-04T04:54:14.357Z,76.68
2019-03-04T04:55:18.035Z,76.74
2019-03-04T04:56:21.664Z,76.83
2019-03-04T04:57:25.307Z,76.97
2019-03-04T04:58:28.942Z,76.72
2019-03-04T04:59:32.632Z,76.93
2019-03-04T05:00:36.294Z,76.99
2019-03-04T05:01:39.943Z,76.49
2019-03-04T05:02:43.587Z,77.32
2019-03-04T05:03:47.216Z,76.75
2019-03-04T05:04:50.861Z,76.43
2019-03-04T05:05:54.530Z,75.73
2019-03-04T05:06:58.170Z,75.28
2019-03-04T05:08:01.807Z,75.41
2019-03-04T05:09:06.551Z,75.54
2019-03-04T05:10:18.542Z,76.18
2019-03-04T05:11:22.220Z,76.77
2019-03-04T05:12:25.861Z,76.81
2019-03-04T05:13:29.504Z,76.72
2019-03-04T05:14:33.109Z,76.87
2019-03-04T05:15:36.716Z,76.79
2019-03-04T05:16:40.353Z,76.91
2019-03-04T05:17:43.988Z,77.02
2019-03-04T05:18:48.051Z,76.96
2019-03-04T05:19:51.686Z,77.11
2019-03-04T05:20:55.357Z,77.17
2019-03-04T05:21:58.999Z,77.29
2019-03-04T05:23:02.990Z,77.20
2019-03-04T05:24:06.637Z,77.19
2019-03-04T05:25:10.890Z,77.14
2019-03-04T05:26:14.564Z,77.05
2019-03-04T05:27:18.198Z,77.00
2019-03-04T05:28:21.907Z,77.08
2019-03-04T05:29:25.627Z,77.06
2019-03-04T05:30:29.291Z,76.91
2019-03-04T05:31:32.968Z,76.99
2019-03-04T05:32:36.938Z,77.13
2019-03-04T05:33:40.584Z,77.24
2019-03-04T05:34:44.304Z,77.12
2019-03-04T05:35:47.944Z,76.91
2019-03-04T05:36:52.033Z,76.75
2019-03-04T05:37:55.682Z,76.54
2019-03-04T05:38:59.318Z,76.46
2019-03-04T05:40:03.169Z,76.41
2019-03-04T05:41:06.813Z,76.82
2019-03-04T05:42:10.488Z,76.96
2019-03-04T05:43:14.156Z,77.04
2019-03-04T05:44:17.817Z,77.28
2019-03-04T05:45:23.491Z,77.44
2019-03-04T05:46:27.134Z,77.25
2019-03-04T05:47:30.791Z,77.09
2019-03-04T05:48:34.432Z,77.45
2019-03-04T05:49:38.849Z,77.18
2019-03-04T05:50:43.569Z,76.95
2019-03-04T05:51:51.149Z,77.28
2019-03-04T05:52:54.818Z,77.17
2019-03-04T05:53:58.445Z,76.98
2019-03-04T05:55:02.027Z,76.73
2019-03-04T05:56:05.670Z,76.48
2019-03-04T05:57:09.319Z,75.73
2019-03-04T05:58:12.929Z,75.19
2019-03-04T05:59:19.699Z,75.52
2019-03-04T06:00:26.608Z,75.59
2019-03-04T06:01:30.916Z,75.56
2019-03-04T06:02:34.571Z,75.81
2019-03-04T06:03:38.210Z,75.15
2019-03-04T06:04:41.852Z,75.29
2019-03-04T06:05:45.572Z,75.28
2019-03-04T06:06:51.508Z,75.23
2019-03-04T06:07:59.483Z,74.83
2019-03-04T06:09:03.515Z,74.90
2019-03-04T06:10:09.659Z,74.98
2019-03-04T06:11:13.498Z,74.91
2019-03-04T06:12:17.353Z,75.28
2019-03-04T06:13:20.993Z,74.99
2019-03-04T06:14:24.637Z,75.03
2019-03-04T06:15:28.369Z,74.90
2019-03-04T06:16:32.033Z,75.01
2019-03-04T06:17:35.675Z,75.31
2019-03-04T06:18:39.334Z,75.76
2019-03-04T06:19:44.078Z,75.86
2019-03-04T06:20:47.696Z,75.84
2019-03-04T06:21:51.472Z,75.79
2019-03-04T06:22:55.117Z,75.58
2019-03-04T06:23:58.751Z,75.71
2019-03-04T06:25:02.401Z,75.50
2019-03-04T06:26:06.131Z,75.38
2019-03-04T06:27:09.862Z,75.27
2019-03-04T06:28:13.775Z,75.03
2019-03-04T06:29:17.437Z,74.81
2019-03-04T06:30:26.966Z,74.69
2019-03-04T06:31:31.000Z,74.42
2019-03-04T06:32:34.588Z,74.13
2019-03-04T06:33:38.225Z,74.43
2019-03-04T06:34:41.865Z,74.25
2019-03-04T06:35:45.501Z,74.18
2019-03-04T06:36:49.129Z,74.23
2019-03-04T06:37:52.803Z,74.01
2019-03-04T06:38:56.557Z,73.72
2019-03-04T06:40:00.066Z,73.72
2019-03-04T06:41:03.772Z,73.78
2019-03-04T06:42:07.424Z,73.89
2019-03-04T06:43:14.979Z,73.03
2019-03-04T06:44:19.867Z,72.56
2019-03-04T06:45:23.589Z,71.90
2019-03-04T06:46:27.218Z,71.25
2019-03-04T06:47:30.848Z,70.55
2019-03-04T06:48:34.587Z,70.19
2019-03-04T06:49:38.260Z,69.99
2019-03-04T06:50:48.353Z,69.74
2019-03-04T06:51:51.985Z,69.65
2019-03-04T06:52:56.638Z,69.51
2019-03-04T06:54:12.503Z,69.53
2019-03-04T06:55:22.225Z,69.70
2019-03-04T06:56:34.456Z,69.86
2019-03-04T06:57:38.133Z,70.08
2019-03-04T06:58:50.421Z,69.62
2019-03-04T06:59:59.733Z,69.00
2019-03-04T07:01:06.778Z,68.50
2019-03-04T07:02:19.041Z,68.60
2019-03-04T07:03:22.776Z,68.22
2019-03-04T07:04:50.634Z,68.28
2019-03-04T07:05:54.912Z,68.47
2019-03-04T07:06:59.554Z,67.54
2019-03-04T07:08:03.191Z,67.23
2019-03-04T07:09:09.051Z,67.65
2019-03-04T07:10:13.489Z,68.32
2019-03-04T07:11:17.206Z,67.54
2019-03-04T07:12:22.341Z,67.17
2019-03-04T07:13:26.027Z,66.00
2019-03-04T07:14:29.725Z,65.55
2019-03-04T07:15:33.376Z,65.04
2019-03-04T07:16:37.084Z,64.75
2019-03-04T07:17:40.764Z,64.25
2019-03-04T07:18:44.399Z,63.53
2019-03-04T07:19:51.325Z,63.66
2019-03-04T07:20:55.075Z,63.29
2019-03-04T07:21:58.800Z,61.86
2019-03-04T07:23:02.442Z,61.97
2019-03-04T07:24:06.086Z,61.95
2019-03-04T07:25:10.613Z,62.05
2019-03-04T07:26:14.265Z,62.01
2019-03-04T07:27:17.949Z,61.44
2019-03-04T07:28:21.591Z,61.72
2019-03-04T07:29:25.303Z,61.47
2019-03-04T07:30:28.950Z,61.25
2019-03-04T07:31:32.589Z,60.65
2019-03-04T07:32:36.294Z,60.38
2019-03-04T07:33:39.952Z,60.81
2019-03-04T07:34:43.672Z,60.97
2019-03-04T07:35:47.313Z,60.30
2019-03-04T07:36:51.032Z,59.84
2019-03-04T07:38:09.454Z,59.42
2019-03-04T07:39:14.014Z,58.74
2019-03-04T07:40:22.275Z,59.65
2019-03-04T07:41:29.177Z,58.59
2019-03-04T07:42:32.783Z,57.53
2019-03-04T07:43:36.392Z,56.52
2019-03-04T07:44:39.939Z,56.54
2019-03-04T07:45:43.583Z,56.05
2019-03-04T07:46:47.217Z,56.13
2019-03-04T07:47:50.879Z,56.57
2019-03-04T07:48:54.540Z,55.59
2019-03-04T07:49:58.550Z,54.27
2019-03-04T07:51:11.055Z,53.38
2019-03-04T07:52:14.797Z,52.89
2019-03-04T07:53:19.195Z,52.46
2019-03-04T07:54:29.022Z,52.72
2019-03-04T07:55:34.290Z,52.57
2019-03-04T07:56:39.976Z,52.31
2019-03-04T07:57:43.672Z,52.10
2019-03-04T07:58:47.226Z,51.41
2019-03-04T07:59:50.894Z,50.73
2019-03-04T08:00:54.537Z,50.77
2019-03-04T08:01:58.577Z,49.84
2019-03-04T08:03:02.388Z,49.32
2019-03-04T08:04:06.024Z,48.68
2019-03-04T08:05:11.166Z,49.27
2019-03-04T08:06:14.840Z,48.09
2019-03-04T08:07:39.236Z,46.97
2019-03-04T08:09:02.134Z,46.79
2019-03-04T08:10:17.756Z,46.55
2019-03-04T08:11:42.743Z,46.29
2019-03-04T08:12:49.406Z,46.12
2019-03-04T08:14:04.910Z,45.42
2019-03-04T08:15:09.742Z,44.54
2019-03-04T08:16:13.376Z,42.69
2019-03-04T08:17:17.048Z,42.91
2019-03-04T08:18:20.697Z,42.04
2019-03-04T08:19:24.324Z,41.86
2019-03-04T08:20:27.982Z,40.84
2019-03-04T08:21:31.676Z,40.98
2019-03-04T08:22:35.345Z,40.98
2019-03-04T08:23:39.022Z,41.33
2019-03-04T08:24:42.647Z,40.36
2019-03-04T08:25:49.078Z,40.62
2019-03-04T08:26:52.799Z,39.68
2019-03-04T08:27:58.917Z,39.34
2019-03-04T08:29:04.690Z,39.82
2019-03-04T08:30:16.889Z,39.46
2019-03-04T08:31:20.531Z,39.70
2019-03-04T08:32:24.539Z,39.70
2019-03-04T08:33:28.309Z,39.79
2019-03-04T08:34:32.331Z,40.89
2019-03-04T08:35:36.070Z,40.89
2019-03-04T08:36:42.575Z,39.68
2019-03-04T08:37:47.957Z,39.39
2019-03-04T08:38:51.603Z,39.39
2019-03-04T08:39:58.252Z,39.97
2019-03-04T08:41:03.732Z,40.55
2019-03-04T08:42:07.324Z,39.48
2019-03-04T08:43:11.307Z,39.43
2019-03-04T08:44:15.057Z,40.16
2019-03-04T08:45:21.421Z,38.97
2019-03-04T08:46:25.102Z,40.13
2019-03-04T08:47:29.083Z,39.61
2019-03-04T08:48:35.592Z,41.26
2019-03-04T08:49:39.606Z,41.28
2019-03-04T08:50:43.242Z,39.11
2019-03-04T08:51:46.873Z,40.43
2019-03-04T08:52:50.509Z,38.81
2019-03-04T08:53:54.159Z,38.81
2019-03-04T08:54:58.173Z,38.65
2019-03-04T08:56:01.834Z,38.18
2019-03-04T08:57:05.507Z,38.70
2019-03-04T08:58:09.191Z,38.60
2019-03-04T08:59:12.835Z,39.34
2019-03-04T09:00:25.766Z,38.18
2019-03-04T09:01:31.190Z,38.20
2019-03-04T09:02:35.193Z,39.19
2019-03-04T09:03:38.825Z,38.54
2019-03-04T09:04:42.456Z,38.98
2019-03-04T09:05:46.229Z,37.88
2019-03-04T09:06:50.300Z,38.02
2019-03-04T09:07:53.939Z,37.57
2019-03-04T09:08:57.638Z,37.83
2019-03-04T09:10:01.266Z,36.87
2019-03-04T09:11:05.123Z,34.98
2019-03-04T09:12:08.757Z,36.42
2019-03-04T09:13:12.403Z,36.42
2019-03-04T09:14:16.163Z,34.08
2019-03-04T09:15:21.548Z,34.31
2019-03-04T09:16:25.330Z,34.03
2019-03-04T09:17:28.913Z,34.96
2019-03-04T09:18:32.596Z,33.86
2019-03-04T09:19:36.334Z,34.44
2019-03-04T09:20:39.969Z,35.00
2019-03-04T09:21:43.613Z,35.31
2019-03-04T09:22:47.358Z,33.42
2019-03-04T09:23:50.998Z,33.01
2019-03-04T09:24:54.665Z,32.72
2019-03-04T09:26:07.156Z,33.40
2019-03-04T09:27:10.797Z,32.00
2019-03-04T09:28:14.525Z,30.36
2019-03-04T09:29:18.180Z,31.41
2019-03-04T09:30:21.901Z,31.04
2019-03-04T09:31:25.553Z,30.66
2019-03-04T09:32:29.282Z,33.45
2019-03-04T09:33:32.918Z,31.82
2019-03-04T09:34:36.568Z,33.39
2019-03-04T09:35:40.242Z,32.83
2019-03-04T09:36:43.891Z,30.40
2019-03-04T09:37:47.526Z,31.18
2019-03-04T09:38:51.192Z,29.18
2019-03-04T09:39:54.847Z,28.64
2019-03-04T09:40:58.523Z,29.16
2019-03-04T09:42:03.809Z,29.77
2019-03-04T09:43:07.964Z,28.04
2019-03-04T09:44:11.603Z,26.75
2019-03-04T09:45:16.644Z,28.09
2019-03-04T09:46:21.954Z,28.88
2019-03-04T09:47:26.026Z,27.98
2019-03-04T09:48:29.644Z,27.68
2019-03-04T09:49:33.290Z,29.04
2019-03-04T09:50:41.528Z,28.86
2019-03-04T09:51:45.182Z,27.93
2019-03-04T09:53:00.403Z,27.05
2019-03-04T09:54:04.261Z,26.16
2019-03-04T09:55:09.791Z,26.01
2019-03-04T09:56:15.267Z,27.28
2019-03-04T09:57:20.581Z,24.92
2019-03-04T09:58:24.234Z,26.01
2019-03-04T09:59:35.374Z,25.58
2019-03-04T10:00:41.917Z,25.24
2019-03-04T10:01:48.966Z,25.69
2019-03-04T10:03:13.372Z,22.71
2019-03-04T10:04:35.298Z,22.50
2019-03-04T10:05:57.009Z,24.53
2019-03-04T10:07:18.667Z,23.21
2019-03-04T10:08:32.534Z,22.87
2019-03-04T10:09:36.696Z,23.42
2019-03-04T10:11:11.934Z,24.09
2019-03-04T10:12:30.135Z,24.41
2019-03-04T10:13:54.746Z,23.77
2019-03-04T10:15:08.484Z,23.88
2019-03-04T10:16:18.875Z,22.28
2019-03-04T10:17:40.505Z,21.79
2019-03-04T10:19:06.603Z,22.30
2019-03-04T10:20:25.344Z,22.48
2019-03-04T10:21:43.512Z,23.18
2019-03-04T10:23:04.578Z,23.19
2019-03-04T10:24:33.772Z,22.70
2019-03-04T10:25:48.754Z,22.96
2019-03-04T10:27:07.323Z,22.37
2019-03-04T10:28:30.286Z,23.15
2019-03-04T10:29:53.279Z,21.85
2019-03-04T10:31:27.006Z,22.28
2019-03-04T10:33:05.508Z,23.25
2019-03-04T10:34:23.915Z,22.37
2019-03-04T10:35:30.542Z,21.45
2019-03-04T10:36:55.076Z,22.06
2019-03-04T10:38:04.350Z,23.77
2019-03-04T10:39:27.337Z,23.76
2019-03-04T10:40:39.644Z,24.15
2019-03-04T10:41:58.417Z,23.14
2019-03-04T10:43:16.575Z,23.37
2019-03-04T10:44:44.222Z,23.90
2019-03-04T10:45:55.715Z,22.85
2019-03-04T10:46:59.619Z,22.61
2019-03-04T10:48:03.331Z,23.05
2019-03-04T10:49:06.970Z,23.84
2019-03-04T10:50:11.482Z,23.33
2019-03-04T10:51:15.157Z,22.11
2019-03-04T10:52:18.798Z,22.84
2019-03-04T10:53:22.451Z,22.36
2019-03-04T10:54:26.081Z,20.91
2019-03-04T10:55:41.653Z,20.38
2019-03-04T10:56:41.602Z,20.63
2019-03-04T10:57:43.876Z,20.61
2019-03-04T10:58:47.528Z,20.52
2019-03-04T10:59:52.643Z,22.25
2019-03-04T11:00:56.283Z,19.51
2019-03-04T11:01:59.954Z,19.78
2019-03-04T11:03:03.588Z,18.91
2019-03-04T11:04:07.325Z,19.14
2019-03-04T11:05:15.603Z,18.43
2019-03-04T11:06:19.304Z,19.01
2019-03-04T11:07:22.975Z,18.97
2019-03-04T11:08:26.604Z,19.54
2019-03-04T11:09:30.616Z,18.86
2019-03-04T11:10:34.247Z,18.96
2019-03-04T11:11:40.311Z,17.68
2019-03-04T11:12:44.050Z,18.96
2019-03-04T11:13:47.608Z,17.72
2019-03-04T11:14:51.231Z,19.81
2019-03-04T11:15:54.948Z,20.17
2019-03-04T11:17:01.557Z,19.53
2019-03-04T11:18:06.798Z,19.42
2019-03-04T11:19:10.484Z,18.66
2019-03-04T11:20:14.469Z,17.99
2019-03-04T11:21:24.162Z,18.88
2019-03-04T11:22:23.574Z,18.68
2019-03-04T11:23:28.131Z,18.52
2019-03-04T11:24:31.761Z,18.98
2019-03-04T11:25:35.447Z,17.37
2019-03-04T11:26:39.251Z,17.09
2019-03-04T11:27:43.087Z,17.33
2019-03-04T11:28:46.787Z,16.73
2019-03-04T11:29:50.421Z,18.72
2019-03-04T11:30:54.127Z,17.91
2019-03-04T11:31:57.877Z,17.87
2019-03-04T11:33:01.529Z,17.64
2019-03-04T11:34:05.230Z,17.58
2019-03-04T11:35:11.782Z,16.81
2019-03-04T11:36:15.409Z,16.84
2019-03-04T11:37:19.107Z,16.62
2019-03-04T11:38:33.655Z,16.82
2019-03-04T11:39:44.910Z,15.93
2019-03-04T11:40:50.220Z,16.79
2019-03-04T11:41:53.872Z,17.34
2019-03-04T11:42:57.628Z,18.03
2019-03-04T11:44:05.124Z,16.45
2019-03-04T11:45:12.051Z,17.34
2019-03-04T11:46:16.553Z,16.26
2019-03-04T11:47:21.854Z,16.92
2019-03-04T11:48:25.530Z,15.95
2019-03-04T11:49:29.158Z,14.82
2019-03-04T11:50:34.463Z,14.79
2019-03-04T11:51:39.563Z,14.76
2019-03-04T11:52:43.473Z,15.24
2019-03-04T11:53:47.100Z,15.09
2019-03-04T11:54:53.413Z,15.83
2019-03-04T11:55:57.266Z,15.56
2019-03-04T11:57:02.355Z,15.96
2019-03-04T11:58:06.111Z,15.62
2019-03-04T11:59:11.235Z,16.20
2019-03-04T12:00:25.229Z,15.44
2019-03-04T12:01:38.572Z,14.80
2019-03-04T12:02:42.384Z,15.21
2019-03-04T12:03:46.094Z,14.44
2019-03-04T12:04:49.790Z,14.74
2019-03-04T12:05:53.496Z,14.17
2019-03-04T12:07:01.880Z,14.48
2019-03-04T12:08:05.528Z,14.34
2019-03-04T12:09:12.404Z,13.98
2019-03-04T12:10:17.494Z,14.16
2019-03-04T12:11:21.510Z,15.22
2019-03-04T12:12:25.189Z,15.13
2019-03-04T12:13:29.243Z,15.11
2019-03-04T12:14:32.876Z,15.35
2019-03-04T12:15:37.276Z,14.79
2019-03-04T12:16:40.939Z,14.52
2019-03-04T12:17:45.002Z,14.66
2019-03-04T12:18:50.681Z,14.66
2019-03-04T12:19:54.239Z,15.04
2019-03-04T12:20:58.234Z,14.26
2019-03-04T12:22:01.872Z,14.29
2019-03-04T12:23:05.530Z,14.54
2019-03-04T12:24:09.159Z,15.46
2019-03-04T12:25:20.349Z,15.43
2019-03-04T12:26:26.483Z,15.97
2019-03-04T12:27:30.120Z,15.28
2019-03-04T12:28:33.794Z,15.17
2019-03-04T12:29:37.719Z,16.25
2019-03-04T12:30:41.358Z,15.49
2019-03-04T12:31:46.556Z,15.49
2019-03-04T12:32:51.099Z,16.44
2019-03-04T12:33:54.753Z,16.08
2019-03-04T12:34:58.386Z,16.06
2019-03-04T12:36:02.019Z,15.71
2019-03-04T12:37:06.047Z,15.24
2019-03-04T12:38:09.752Z,15.87
2019-03-04T12:39:13.717Z,15.10
2019-03-04T12:40:18.660Z,14.93
2019-03-04T12:41:22.355Z,14.62
2019-03-04T12:42:25.981Z,14.29
2019-03-04T12:43:29.654Z,15.27
2019-03-04T12:44:33.318Z,14.59
2019-03-04T12:45:36.957Z,14.95
2019-03-04T12:46:40.597Z,14.72
2019-03-04T12:47:44.646Z,15.39
2019-03-04T12:48:48.308Z,14.98
2019-03-04T12:49:51.965Z,15.63
2019-03-04T12:50:55.602Z,15.73
2019-03-04T12:51:59.220Z,14.38
2019-03-04T12:53:02.973Z,14.65
2019-03-04T12:54:06.713Z,14.41
2019-03-04T12:55:11.487Z,15.13
2019-03-04T12:56:15.124Z,15.24
2019-03-04T12:57:18.759Z,15.20
2019-03-04T12:58:22.406Z,15.33
2019-03-04T12:59:25.958Z,15.82
2019-03-04T13:00:34.179Z,15.51
2019-03-04T13:01:37.810Z,15.62
2019-03-04T13:02:41.828Z,15.30
2019-03-04T13:03:48.311Z,16.04
2019-03-04T13:04:51.938Z,15.45
2019-03-04T13:05:55.599Z,15.04
2019-03-04T13:06:59.292Z,15.42
2019-03-04T13:08:02.995Z,16.18
2019-03-04T13:09:14.057Z,15.28
2019-03-04T13:10:16.661Z,15.17
2019-03-04T13:11:21.773Z,15.29
2019-03-04T13:12:25.403Z,15.12
2019-03-04T13:13:34.845Z,15.04
2019-03-04T13:14:38.474Z,15.31
2019-03-04T13:15:42.112Z,14.57
2019-03-04T13:16:45.791Z,15.27
2019-03-04T13:17:49.547Z,16.00
2019-03-04T13:18:54.199Z,16.08
2019-03-04T13:19:57.779Z,16.04
2019-03-04T13:21:04.532Z,15.59
2019-03-04T13:22:08.949Z,15.55
2019-03-04T13:23:12.756Z,15.37
2019-03-04T13:24:16.392Z,15.01
2019-03-04T13:25:22.191Z,15.66
2019-03-04T13:26:28.657Z,16.00
2019-03-04T13:27:32.362Z,15.57
2019-03-04T13:28:41.745Z,15.05
2019-03-04T13:29:45.293Z,14.88
2019-03-04T13:30:48.999Z,15.94
2019-03-04T13:31:52.977Z,15.75
2019-03-04T13:32:56.713Z,16.11
2019-03-04T13:34:01.925Z,16.61
2019-03-04T13:35:11.261Z,18.03
2019-03-04T13:36:14.938Z,17.59
2019-03-04T13:37:20.016Z,16.67
2019-03-04T13:38:23.863Z,15.90
2019-03-04T13:39:27.499Z,16.18
2019-03-04T13:40:32.031Z,17.31
2019-03-04T13:41:35.954Z,15.82
2019-03-04T13:42:39.590Z,15.81
2019-03-04T13:43:43.272Z,15.79
2019-03-04T13:45:58.624Z,16.14
2019-03-04T13:47:02.269Z,17.03
2019-03-04T13:48:06.027Z,16.85
2019-03-04T13:49:09.690Z,18.54
2019-03-04T13:50:18.736Z,19.30
2019-03-04T13:51:22.435Z,18.33
2019-03-04T13:52:26.584Z,19.22
2019-03-04T13:53:31.171Z,18.66
2019-03-04T13:54:34.881Z,17.20
2019-03-04T13:55:38.894Z,17.69
2019-03-04T13:56:42.533Z,17.75
2019-03-04T13:57:46.358Z,18.95
2019-03-04T13:58:49.988Z,17.87
2019-03-04T13:59:53.661Z,17.75
2019-03-04T14:00:57.289Z,18.30